sensor_id;sensor_type;location;lat;lon;timestamp;P1;durP1;ratioP1;P2;durP2;ratioP2
52642;SDS011;38531;53.296;6.614;2023-04-06T00:01:02;5.72;;;2.40;;
52642;SDS011;38531;53.296;6.614;2023-04-06T00:03:28;3.92;;;2.20;;
52642;SDS011;38531;53.296;6.614;2023-04-06T00:05:53;4.03;;;2.05;;
52642;SDS011;38531;53.296;6.614;2023-04-06T00:08:19;4.25;;;2.22;;
52642;SDS011;38531;53.296;6.614;2023-04-06T00:10:46;2.88;;;1.77;;
52642;SDS011;38531;53.296;6.614;2023-04-06T00:13:12;3.38;;;2.17;;
52642;SDS011;38531;53.296;6.614;2023-04-06T00:15:38;3.17;;;2.00;;
52642;SDS011;38531;53.296;6.614;2023-04-06T00:18:03;4.90;;;2.72;;
52642;SDS011;38531;53.296;6.614;2023-04-06T00:20:29;5.32;;;2.00;;
52642;SDS011;38531;53.296;6.614;2023-04-06T00:22:55;4.20;;;2.33;;
52642;SDS011;38531;53.296;6.614;2023-04-06T00:25:21;3.85;;;2.75;;
52642;SDS011;38531;53.296;6.614;2023-04-06T00:27:47;4.00;;;2.38;;
52642;SDS011;38531;53.296;6.614;2023-04-06T00:30:13;4.28;;;2.40;;
52642;SDS011;38531;53.296;6.614;2023-04-06T00:32:38;4.10;;;2.20;;
52642;SDS011;38531;53.296;6.614;2023-04-06T00:35:04;6.05;;;2.88;;
52642;SDS011;38531;53.296;6.614;2023-04-06T00:37:31;4.00;;;2.20;;
52642;SDS011;38531;53.296;6.614;2023-04-06T00:39:57;3.85;;;2.13;;
52642;SDS011;38531;53.296;6.614;2023-04-06T00:42:23;6.07;;;2.55;;
52642;SDS011;38531;53.296;6.614;2023-04-06T00:44:55;4.45;;;2.45;;
52642;SDS011;38531;53.296;6.614;2023-04-06T00:47:22;4.57;;;2.40;;
52642;SDS011;38531;53.296;6.614;2023-04-06T00:49:50;3.92;;;2.20;;
52642;SDS011;38531;53.296;6.614;2023-04-06T00:52:17;5.57;;;2.88;;
52642;SDS011;38531;53.296;6.614;2023-04-06T00:54:43;5.70;;;3.00;;
52642;SDS011;38531;53.296;6.614;2023-04-06T00:57:10;4.65;;;2.92;;
52642;SDS011;38531;53.296;6.614;2023-04-06T00:59:37;6.35;;;2.75;;
52642;SDS011;38531;53.296;6.614;2023-04-06T01:02:03;5.55;;;2.83;;
52642;SDS011;38531;53.296;6.614;2023-04-06T01:04:29;5.03;;;2.17;;
52642;SDS011;38531;53.296;6.614;2023-04-06T01:06:55;4.88;;;2.80;;
52642;SDS011;38531;53.296;6.614;2023-04-06T01:09:21;3.67;;;1.98;;
52642;SDS011;38531;53.296;6.614;2023-04-06T01:11:47;3.95;;;2.20;;
52642;SDS011;38531;53.296;6.614;2023-04-06T01:14:13;4.68;;;2.50;;
52642;SDS011;38531;53.296;6.614;2023-04-06T01:16:40;4.88;;;2.20;;
52642;SDS011;38531;53.296;6.614;2023-04-06T01:19:09;5.55;;;2.55;;
52642;SDS011;38531;53.296;6.614;2023-04-06T01:21:39;5.93;;;2.92;;
52642;SDS011;38531;53.296;6.614;2023-04-06T01:24:06;4.68;;;2.88;;
52642;SDS011;38531;53.296;6.614;2023-04-06T01:26:32;7.45;;;2.47;;
52642;SDS011;38531;53.296;6.614;2023-04-06T01:28:59;5.72;;;2.67;;
52642;SDS011;38531;53.296;6.614;2023-04-06T01:31:25;3.97;;;2.20;;
52642;SDS011;38531;53.296;6.614;2023-04-06T01:33:52;4.40;;;2.40;;
52642;SDS011;38531;53.296;6.614;2023-04-06T01:36:18;5.80;;;3.13;;
52642;SDS011;38531;53.296;6.614;2023-04-06T01:38:44;6.80;;;3.40;;
52642;SDS011;38531;53.296;6.614;2023-04-06T01:41:10;4.63;;;2.72;;
52642;SDS011;38531;53.296;6.614;2023-04-06T01:43:36;5.43;;;3.00;;
52642;SDS011;38531;53.296;6.614;2023-04-06T01:46:02;5.18;;;2.88;;
52642;SDS011;38531;53.296;6.614;2023-04-06T01:48:28;8.02;;;3.42;;
52642;SDS011;38531;53.296;6.614;2023-04-06T01:50:54;4.47;;;2.70;;
52642;SDS011;38531;53.296;6.614;2023-04-06T01:53:20;6.18;;;3.03;;
52642;SDS011;38531;53.296;6.614;2023-04-06T01:55:46;5.35;;;3.03;;
52642;SDS011;38531;53.296;6.614;2023-04-06T01:58:12;4.35;;;2.63;;
52642;SDS011;38531;53.296;6.614;2023-04-06T02:00:38;5.40;;;2.90;;
52642;SDS011;38531;53.296;6.614;2023-04-06T02:03:04;4.75;;;2.53;;
52642;SDS011;38531;53.296;6.614;2023-04-06T02:05:31;4.47;;;2.53;;
52642;SDS011;38531;53.296;6.614;2023-04-06T02:08:02;5.82;;;3.00;;
52642;SDS011;38531;53.296;6.614;2023-04-06T02:10:30;4.03;;;2.40;;
52642;SDS011;38531;53.296;6.614;2023-04-06T02:12:56;4.50;;;2.75;;
52642;SDS011;38531;53.296;6.614;2023-04-06T02:15:22;5.82;;;3.30;;
52642;SDS011;38531;53.296;6.614;2023-04-06T02:17:48;4.93;;;2.60;;
52642;SDS011;38531;53.296;6.614;2023-04-06T02:20:13;5.00;;;3.20;;
52642;SDS011;38531;53.296;6.614;2023-04-06T02:22:39;5.03;;;2.97;;
52642;SDS011;38531;53.296;6.614;2023-04-06T02:25:05;6.35;;;3.47;;
52642;SDS011;38531;53.296;6.614;2023-04-06T02:27:31;5.75;;;3.08;;
52642;SDS011;38531;53.296;6.614;2023-04-06T02:29:57;5.28;;;2.63;;
52642;SDS011;38531;53.296;6.614;2023-04-06T02:32:23;5.10;;;2.97;;
52642;SDS011;38531;53.296;6.614;2023-04-06T02:34:49;5.85;;;3.08;;
52642;SDS011;38531;53.296;6.614;2023-04-06T02:37:15;5.18;;;2.50;;
52642;SDS011;38531;53.296;6.614;2023-04-06T02:39:41;5.85;;;2.88;;
52642;SDS011;38531;53.296;6.614;2023-04-06T02:42:06;6.47;;;3.15;;
52642;SDS011;38531;53.296;6.614;2023-04-06T02:44:33;8.30;;;3.38;;
52642;SDS011;38531;53.296;6.614;2023-04-06T02:46:59;6.57;;;3.13;;
52642;SDS011;38531;53.296;6.614;2023-04-06T02:49:25;6.05;;;3.17;;
52642;SDS011;38531;53.296;6.614;2023-04-06T02:51:51;6.35;;;2.95;;
52642;SDS011;38531;53.296;6.614;2023-04-06T02:54:16;4.75;;;2.90;;
52642;SDS011;38531;53.296;6.614;2023-04-06T02:56:42;5.55;;;3.05;;
52642;SDS011;38531;53.296;6.614;2023-04-06T02:59:08;5.25;;;3.10;;
52642;SDS011;38531;53.296;6.614;2023-04-06T03:01:34;7.10;;;3.45;;
52642;SDS011;38531;53.296;6.614;2023-04-06T03:04:01;7.55;;;3.10;;
52642;SDS011;38531;53.296;6.614;2023-04-06T03:06:27;4.97;;;2.88;;
52642;SDS011;38531;53.296;6.614;2023-04-06T03:08:52;4.93;;;2.50;;
52642;SDS011;38531;53.296;6.614;2023-04-06T03:11:18;5.78;;;2.80;;
52642;SDS011;38531;53.296;6.614;2023-04-06T03:13:44;6.75;;;3.15;;
52642;SDS011;38531;53.296;6.614;2023-04-06T03:16:10;6.05;;;3.13;;
52642;SDS011;38531;53.296;6.614;2023-04-06T03:18:35;4.68;;;2.30;;
52642;SDS011;38531;53.296;6.614;2023-04-06T03:21:01;5.72;;;3.08;;
52642;SDS011;38531;53.296;6.614;2023-04-06T03:23:27;6.00;;;3.17;;
52642;SDS011;38531;53.296;6.614;2023-04-06T03:25:52;5.53;;;3.30;;
52642;SDS011;38531;53.296;6.614;2023-04-06T03:28:18;6.40;;;3.50;;
52642;SDS011;38531;53.296;6.614;2023-04-06T03:30:44;5.72;;;3.33;;
52642;SDS011;38531;53.296;6.614;2023-04-06T03:33:11;5.72;;;3.10;;
52642;SDS011;38531;53.296;6.614;2023-04-06T03:35:36;5.18;;;3.05;;
52642;SDS011;38531;53.296;6.614;2023-04-06T03:38:03;6.03;;;2.75;;
52642;SDS011;38531;53.296;6.614;2023-04-06T03:40:29;4.90;;;3.05;;
52642;SDS011;38531;53.296;6.614;2023-04-06T03:42:56;5.78;;;3.15;;
52642;SDS011;38531;53.296;6.614;2023-04-06T03:45:22;5.50;;;3.28;;
52642;SDS011;38531;53.296;6.614;2023-04-06T03:47:47;5.88;;;3.22;;
52642;SDS011;38531;53.296;6.614;2023-04-06T03:50:13;5.65;;;3.25;;
52642;SDS011;38531;53.296;6.614;2023-04-06T03:52:39;5.50;;;3.00;;
52642;SDS011;38531;53.296;6.614;2023-04-06T03:55:05;4.78;;;2.63;;
52642;SDS011;38531;53.296;6.614;2023-04-06T03:57:31;5.72;;;3.10;;
52642;SDS011;38531;53.296;6.614;2023-04-06T03:59:57;7.03;;;3.55;;
52642;SDS011;38531;53.296;6.614;2023-04-06T04:02:23;6.22;;;3.67;;
52642;SDS011;38531;53.296;6.614;2023-04-06T04:04:49;5.88;;;3.40;;
52642;SDS011;38531;53.296;6.614;2023-04-06T04:07:14;8.20;;;4.13;;
52642;SDS011;38531;53.296;6.614;2023-04-06T04:09:40;6.47;;;3.80;;
52642;SDS011;38531;53.296;6.614;2023-04-06T04:12:06;7.20;;;3.97;;
52642;SDS011;38531;53.296;6.614;2023-04-06T04:14:31;6.35;;;3.78;;
52642;SDS011;38531;53.296;6.614;2023-04-06T04:16:57;7.47;;;3.90;;
52642;SDS011;38531;53.296;6.614;2023-04-06T04:19:23;7.25;;;3.30;;
52642;SDS011;38531;53.296;6.614;2023-04-06T04:21:48;4.80;;;3.33;;
52642;SDS011;38531;53.296;6.614;2023-04-06T04:24:14;5.82;;;3.10;;
52642;SDS011;38531;53.296;6.614;2023-04-06T04:26:40;4.95;;;3.05;;
52642;SDS011;38531;53.296;6.614;2023-04-06T04:29:06;6.30;;;3.95;;
52642;SDS011;38531;53.296;6.614;2023-04-06T04:31:32;6.90;;;3.35;;
52642;SDS011;38531;53.296;6.614;2023-04-06T04:33:59;5.90;;;3.22;;
52642;SDS011;38531;53.296;6.614;2023-04-06T04:36:25;5.18;;;3.40;;
52642;SDS011;38531;53.296;6.614;2023-04-06T04:38:51;6.65;;;3.60;;
52642;SDS011;38531;53.296;6.614;2023-04-06T04:41:17;7.18;;;3.65;;
52642;SDS011;38531;53.296;6.614;2023-04-06T04:43:43;6.30;;;3.03;;
52642;SDS011;38531;53.296;6.614;2023-04-06T04:46:09;7.28;;;3.92;;
52642;SDS011;38531;53.296;6.614;2023-04-06T04:48:35;5.22;;;2.97;;
52642;SDS011;38531;53.296;6.614;2023-04-06T04:51:01;6.35;;;3.50;;
52642;SDS011;38531;53.296;6.614;2023-04-06T04:53:27;7.10;;;3.72;;
52642;SDS011;38531;53.296;6.614;2023-04-06T04:55:52;6.97;;;3.17;;
52642;SDS011;38531;53.296;6.614;2023-04-06T04:58:18;6.57;;;2.90;;
52642;SDS011;38531;53.296;6.614;2023-04-06T05:00:47;7.70;;;3.30;;
52642;SDS011;38531;53.296;6.614;2023-04-06T05:03:23;6.80;;;4.03;;
52642;SDS011;38531;53.296;6.614;2023-04-06T05:05:50;6.20;;;3.75;;
52642;SDS011;38531;53.296;6.614;2023-04-06T05:08:15;6.13;;;3.72;;
52642;SDS011;38531;53.296;6.614;2023-04-06T05:10:41;7.25;;;3.15;;
52642;SDS011;38531;53.296;6.614;2023-04-06T05:13:07;6.25;;;3.85;;
52642;SDS011;38531;53.296;6.614;2023-04-06T05:15:33;4.65;;;2.88;;
52642;SDS011;38531;53.296;6.614;2023-04-06T05:18:06;8.60;;;3.17;;
52642;SDS011;38531;53.296;6.614;2023-04-06T05:20:33;4.95;;;3.15;;
52642;SDS011;38531;53.296;6.614;2023-04-06T05:23:00;6.50;;;3.90;;
52642;SDS011;38531;53.296;6.614;2023-04-06T05:25:26;5.55;;;3.05;;
52642;SDS011;38531;53.296;6.614;2023-04-06T05:27:52;6.43;;;3.35;;
52642;SDS011;38531;53.296;6.614;2023-04-06T05:30:18;5.90;;;3.17;;
52642;SDS011;38531;53.296;6.614;2023-04-06T05:32:44;6.30;;;3.38;;
52642;SDS011;38531;53.296;6.614;2023-04-06T05:35:10;4.68;;;2.83;;
52642;SDS011;38531;53.296;6.614;2023-04-06T05:37:37;5.63;;;2.72;;
52642;SDS011;38531;53.296;6.614;2023-04-06T05:40:03;6.13;;;3.08;;
52642;SDS011;38531;53.296;6.614;2023-04-06T05:42:36;5.75;;;3.58;;
52642;SDS011;38531;53.296;6.614;2023-04-06T05:45:07;5.50;;;2.88;;
52642;SDS011;38531;53.296;6.614;2023-04-06T05:47:33;5.88;;;3.00;;
52642;SDS011;38531;53.296;6.614;2023-04-06T05:49:59;5.72;;;3.63;;
52642;SDS011;38531;53.296;6.614;2023-04-06T05:52:25;6.63;;;3.53;;
52642;SDS011;38531;53.296;6.614;2023-04-06T05:54:51;6.38;;;3.20;;
52642;SDS011;38531;53.296;6.614;2023-04-06T05:57:17;5.40;;;3.17;;
52642;SDS011;38531;53.296;6.614;2023-04-06T05:59:43;6.13;;;2.70;;
52642;SDS011;38531;53.296;6.614;2023-04-06T06:02:09;5.00;;;3.17;;
52642;SDS011;38531;53.296;6.614;2023-04-06T06:04:35;5.57;;;3.13;;
52642;SDS011;38531;53.296;6.614;2023-04-06T06:07:01;4.32;;;3.00;;
52642;SDS011;38531;53.296;6.614;2023-04-06T06:09:27;6.47;;;3.20;;
52642;SDS011;38531;53.296;6.614;2023-04-06T06:11:52;4.43;;;2.70;;
52642;SDS011;38531;53.296;6.614;2023-04-06T06:14:18;5.05;;;2.70;;
52642;SDS011;38531;53.296;6.614;2023-04-06T06:16:45;5.72;;;3.03;;
52642;SDS011;38531;53.296;6.614;2023-04-06T06:19:10;5.72;;;2.83;;
52642;SDS011;38531;53.296;6.614;2023-04-06T06:21:36;5.00;;;3.13;;
52642;SDS011;38531;53.296;6.614;2023-04-06T06:24:02;5.05;;;2.80;;
52642;SDS011;38531;53.296;6.614;2023-04-06T06:26:28;3.15;;;2.08;;
52642;SDS011;38531;53.296;6.614;2023-04-06T06:28:53;4.70;;;2.88;;
52642;SDS011;38531;53.296;6.614;2023-04-06T06:31:20;4.38;;;2.30;;
52642;SDS011;38531;53.296;6.614;2023-04-06T06:33:47;6.15;;;3.10;;
52642;SDS011;38531;53.296;6.614;2023-04-06T06:36:16;3.28;;;2.17;;
52642;SDS011;38531;53.296;6.614;2023-04-06T06:38:42;5.13;;;2.85;;
52642;SDS011;38531;53.296;6.614;2023-04-06T06:41:08;4.90;;;3.08;;
52642;SDS011;38531;53.296;6.614;2023-04-06T06:43:34;4.38;;;2.40;;
52642;SDS011;38531;53.296;6.614;2023-04-06T06:45:59;5.32;;;3.15;;
52642;SDS011;38531;53.296;6.614;2023-04-06T06:48:25;6.95;;;3.97;;
52642;SDS011;38531;53.296;6.614;2023-04-06T06:50:51;5.35;;;3.42;;
52642;SDS011;38531;53.296;6.614;2023-04-06T06:53:17;8.32;;;3.95;;
52642;SDS011;38531;53.296;6.614;2023-04-06T06:55:43;9.27;;;4.10;;
52642;SDS011;38531;53.296;6.614;2023-04-06T06:58:11;6.07;;;3.75;;
52642;SDS011;38531;53.296;6.614;2023-04-06T07:00:37;6.72;;;4.18;;
52642;SDS011;38531;53.296;6.614;2023-04-06T07:03:03;8.68;;;4.07;;
52642;SDS011;38531;53.296;6.614;2023-04-06T07:05:28;7.30;;;3.83;;
52642;SDS011;38531;53.296;6.614;2023-04-06T07:07:54;5.72;;;3.42;;
52642;SDS011;38531;53.296;6.614;2023-04-06T07:10:21;4.65;;;2.90;;
52642;SDS011;38531;53.296;6.614;2023-04-06T07:12:46;6.20;;;3.33;;
52642;SDS011;38531;53.296;6.614;2023-04-06T07:15:12;4.32;;;2.40;;
52642;SDS011;38531;53.296;6.614;2023-04-06T07:17:38;5.05;;;3.20;;
52642;SDS011;38531;53.296;6.614;2023-04-06T07:20:06;3.35;;;2.13;;
52642;SDS011;38531;53.296;6.614;2023-04-06T07:22:32;4.97;;;2.38;;
52642;SDS011;38531;53.296;6.614;2023-04-06T07:24:58;3.30;;;2.30;;
52642;SDS011;38531;53.296;6.614;2023-04-06T07:27:23;4.13;;;2.67;;
52642;SDS011;38531;53.296;6.614;2023-04-06T07:29:49;5.03;;;3.00;;
52642;SDS011;38531;53.296;6.614;2023-04-06T07:32:15;4.93;;;3.50;;
52642;SDS011;38531;53.296;6.614;2023-04-06T07:34:40;4.75;;;3.22;;
52642;SDS011;38531;53.296;6.614;2023-04-06T07:37:06;5.68;;;2.88;;
52642;SDS011;38531;53.296;6.614;2023-04-06T07:39:32;5.00;;;3.13;;
52642;SDS011;38531;53.296;6.614;2023-04-06T07:41:58;5.68;;;3.25;;
52642;SDS011;38531;53.296;6.614;2023-04-06T07:44:24;6.45;;;3.33;;
52642;SDS011;38531;53.296;6.614;2023-04-06T07:46:50;3.78;;;2.95;;
52642;SDS011;38531;53.296;6.614;2023-04-06T07:49:15;4.28;;;2.78;;
52642;SDS011;38531;53.296;6.614;2023-04-06T07:51:41;6.80;;;3.90;;
52642;SDS011;38531;53.296;6.614;2023-04-06T07:54:07;6.97;;;3.30;;
52642;SDS011;38531;53.296;6.614;2023-04-06T07:56:32;5.57;;;3.38;;
52642;SDS011;38531;53.296;6.614;2023-04-06T07:58:58;4.55;;;2.60;;
52642;SDS011;38531;53.296;6.614;2023-04-06T08:01:24;6.13;;;3.28;;
52642;SDS011;38531;53.296;6.614;2023-04-06T08:03:50;18.88;;;17.42;;
52642;SDS011;38531;53.296;6.614;2023-04-06T08:06:16;9.18;;;5.07;;
52642;SDS011;38531;53.296;6.614;2023-04-06T08:08:42;7.13;;;4.57;;
52642;SDS011;38531;53.296;6.614;2023-04-06T08:11:08;6.93;;;4.40;;
52642;SDS011;38531;53.296;6.614;2023-04-06T08:13:34;6.65;;;4.00;;
52642;SDS011;38531;53.296;6.614;2023-04-06T08:16:00;4.50;;;3.00;;
52642;SDS011;38531;53.296;6.614;2023-04-06T08:18:26;6.03;;;3.50;;
52642;SDS011;38531;53.296;6.614;2023-04-06T08:20:52;6.10;;;3.88;;
52642;SDS011;38531;53.296;6.614;2023-04-06T08:23:19;4.78;;;3.78;;
52642;SDS011;38531;53.296;6.614;2023-04-06T08:25:45;4.50;;;2.85;;
52642;SDS011;38531;53.296;6.614;2023-04-06T08:28:10;5.30;;;2.70;;
52642;SDS011;38531;53.296;6.614;2023-04-06T08:30:39;4.70;;;3.20;;
52642;SDS011;38531;53.296;6.614;2023-04-06T08:33:08;4.32;;;3.20;;
52642;SDS011;38531;53.296;6.614;2023-04-06T08:35:34;5.28;;;3.03;;
52642;SDS011;38531;53.296;6.614;2023-04-06T08:38:00;4.35;;;2.65;;
52642;SDS011;38531;53.296;6.614;2023-04-06T08:40:26;6.43;;;3.35;;
52642;SDS011;38531;53.296;6.614;2023-04-06T08:42:54;6.93;;;3.20;;
52642;SDS011;38531;53.296;6.614;2023-04-06T08:45:21;7.32;;;3.88;;
52642;SDS011;38531;53.296;6.614;2023-04-06T08:47:50;4.63;;;3.13;;
52642;SDS011;38531;53.296;6.614;2023-04-06T08:50:17;5.22;;;3.38;;
52642;SDS011;38531;53.296;6.614;2023-04-06T08:52:44;5.90;;;3.78;;
52642;SDS011;38531;53.296;6.614;2023-04-06T08:55:13;5.97;;;3.25;;
52642;SDS011;38531;53.296;6.614;2023-04-06T08:57:39;5.85;;;3.17;;
52642;SDS011;38531;53.296;6.614;2023-04-06T09:00:06;6.68;;;3.35;;
52642;SDS011;38531;53.296;6.614;2023-04-06T09:02:36;5.93;;;3.15;;
52642;SDS011;38531;53.296;6.614;2023-04-06T09:05:06;7.63;;;4.13;;
52642;SDS011;38531;53.296;6.614;2023-04-06T09:07:34;7.63;;;3.38;;
52642;SDS011;38531;53.296;6.614;2023-04-06T09:10:00;5.05;;;3.30;;
52642;SDS011;38531;53.296;6.614;2023-04-06T09:12:27;4.72;;;3.70;;
52642;SDS011;38531;53.296;6.614;2023-04-06T09:14:54;5.90;;;3.58;;
52642;SDS011;38531;53.296;6.614;2023-04-06T09:17:22;5.60;;;3.20;;
52642;SDS011;38531;53.296;6.614;2023-04-06T09:19:48;5.15;;;3.00;;
52642;SDS011;38531;53.296;6.614;2023-04-06T09:22:15;6.53;;;2.85;;
52642;SDS011;38531;53.296;6.614;2023-04-06T09:24:50;4.10;;;2.88;;
52642;SDS011;38531;53.296;6.614;2023-04-06T09:27:18;4.43;;;2.72;;
52642;SDS011;38531;53.296;6.614;2023-04-06T09:30:17;7.13;;;2.78;;
52642;SDS011;38531;53.296;6.614;2023-04-06T09:32:44;5.03;;;3.00;;
52642;SDS011;38531;53.296;6.614;2023-04-06T09:35:10;6.28;;;3.47;;
52642;SDS011;38531;53.296;6.614;2023-04-06T09:37:36;5.60;;;3.35;;
52642;SDS011;38531;53.296;6.614;2023-04-06T09:40:02;7.38;;;3.88;;
52642;SDS011;38531;53.296;6.614;2023-04-06T09:42:32;5.18;;;3.05;;
52642;SDS011;38531;53.296;6.614;2023-04-06T09:44:59;5.35;;;3.35;;
52642;SDS011;38531;53.296;6.614;2023-04-06T09:47:26;6.10;;;3.22;;
52642;SDS011;38531;53.296;6.614;2023-04-06T09:50:00;6.57;;;3.65;;
52642;SDS011;38531;53.296;6.614;2023-04-06T09:52:31;5.50;;;3.08;;
52642;SDS011;38531;53.296;6.614;2023-04-06T09:55:02;10.52;;;4.78;;
52642;SDS011;38531;53.296;6.614;2023-04-06T09:57:32;7.63;;;3.80;;
52642;SDS011;38531;53.296;6.614;2023-04-06T10:00:07;6.55;;;3.80;;
52642;SDS011;38531;53.296;6.614;2023-04-06T10:05:54;7.20;;;3.78;;
52642;SDS011;38531;53.296;6.614;2023-04-06T10:08:15;7.05;;;3.85;;
52642;SDS011;38531;53.296;6.614;2023-04-06T10:10:43;6.18;;;3.30;;
52642;SDS011;38531;53.296;6.614;2023-04-06T10:13:10;7.22;;;3.60;;
52642;SDS011;38531;53.296;6.614;2023-04-06T10:15:37;7.00;;;3.50;;
52642;SDS011;38531;53.296;6.614;2023-04-06T10:18:04;6.88;;;3.95;;
52642;SDS011;38531;53.296;6.614;2023-04-06T10:25:34;8.07;;;4.70;;
52642;SDS011;38531;53.296;6.614;2023-04-06T10:28:04;6.35;;;3.97;;
52642;SDS011;38531;53.296;6.614;2023-04-06T10:30:32;6.35;;;3.88;;
52642;SDS011;38531;53.296;6.614;2023-04-06T10:32:58;7.70;;;3.63;;
52642;SDS011;38531;53.296;6.614;2023-04-06T10:35:24;7.35;;;4.38;;
52642;SDS011;38531;53.296;6.614;2023-04-06T10:38:03;8.45;;;3.88;;
52642;SDS011;38531;53.296;6.614;2023-04-06T10:40:30;7.78;;;4.32;;
52642;SDS011;38531;53.296;6.614;2023-04-06T10:43:12;10.75;;;5.10;;
52642;SDS011;38531;53.296;6.614;2023-04-06T10:45:39;8.40;;;4.68;;
52642;SDS011;38531;53.296;6.614;2023-04-06T10:48:12;7.45;;;4.40;;
52642;SDS011;38531;53.296;6.614;2023-04-06T10:50:40;8.02;;;5.38;;
52642;SDS011;38531;53.296;6.614;2023-04-06T10:53:08;9.60;;;5.30;;
52642;SDS011;38531;53.296;6.614;2023-04-06T10:55:34;8.45;;;4.80;;
52642;SDS011;38531;53.296;6.614;2023-04-06T10:58:06;7.70;;;4.60;;
52642;SDS011;38531;53.296;6.614;2023-04-06T11:00:33;7.03;;;4.32;;
52642;SDS011;38531;53.296;6.614;2023-04-06T11:03:00;6.32;;;4.25;;
52642;SDS011;38531;53.296;6.614;2023-04-06T11:05:27;6.80;;;4.15;;
52642;SDS011;38531;53.296;6.614;2023-04-06T11:07:53;8.25;;;4.75;;
52642;SDS011;38531;53.296;6.614;2023-04-06T11:10:22;8.43;;;4.45;;
52642;SDS011;38531;53.296;6.614;2023-04-06T11:12:57;6.43;;;3.85;;
52642;SDS011;38531;53.296;6.614;2023-04-06T11:15:23;6.25;;;3.85;;
52642;SDS011;38531;53.296;6.614;2023-04-06T11:17:48;7.45;;;4.70;;
52642;SDS011;38531;53.296;6.614;2023-04-06T11:20:14;12.85;;;5.60;;
52642;SDS011;38531;53.296;6.614;2023-04-06T11:22:50;7.88;;;5.55;;
52642;SDS011;38531;53.296;6.614;2023-04-06T11:25:16;8.95;;;5.10;;
52642;SDS011;38531;53.296;6.614;2023-04-06T11:27:42;7.18;;;4.88;;
52642;SDS011;38531;53.296;6.614;2023-04-06T11:30:09;8.43;;;5.38;;
52642;SDS011;38531;53.296;6.614;2023-04-06T11:32:39;8.45;;;5.05;;
52642;SDS011;38531;53.296;6.614;2023-04-06T11:35:07;11.27;;;6.28;;
52642;SDS011;38531;53.296;6.614;2023-04-06T11:37:36;10.00;;;6.20;;
52642;SDS011;38531;53.296;6.614;2023-04-06T11:40:02;11.30;;;6.85;;
52642;SDS011;38531;53.296;6.614;2023-04-06T11:42:28;9.13;;;5.22;;
52642;SDS011;38531;53.296;6.614;2023-04-06T11:44:55;9.85;;;5.70;;
52642;SDS011;38531;53.296;6.614;2023-04-06T11:47:36;9.55;;;5.68;;
52642;SDS011;38531;53.296;6.614;2023-04-06T11:50:20;13.70;;;8.13;;
52642;SDS011;38531;53.296;6.614;2023-04-06T11:52:46;13.48;;;8.20;;
52642;SDS011;38531;53.296;6.614;2023-04-06T11:55:24;15.13;;;9.15;;
52642;SDS011;38531;53.296;6.614;2023-04-06T11:57:50;13.73;;;8.50;;
52642;SDS011;38531;53.296;6.614;2023-04-06T12:00:16;14.25;;;8.10;;
52642;SDS011;38531;53.296;6.614;2023-04-06T12:02:46;13.75;;;8.13;;
52642;SDS011;38531;53.296;6.614;2023-04-06T12:05:12;12.30;;;7.75;;
52642;SDS011;38531;53.296;6.614;2023-04-06T12:07:39;12.02;;;8.18;;
52642;SDS011;38531;53.296;6.614;2023-04-06T12:10:05;16.00;;;9.02;;
52642;SDS011;38531;53.296;6.614;2023-04-06T12:12:31;14.57;;;8.73;;
52642;SDS011;38531;53.296;6.614;2023-04-06T12:14:56;14.60;;;7.82;;
52642;SDS011;38531;53.296;6.614;2023-04-06T12:17:23;10.48;;;6.40;;
52642;SDS011;38531;53.296;6.614;2023-04-06T12:19:49;14.57;;;8.35;;
52642;SDS011;38531;53.296;6.614;2023-04-06T12:22:15;15.10;;;8.93;;
52642;SDS011;38531;53.296;6.614;2023-04-06T12:24:42;15.50;;;9.82;;
52642;SDS011;38531;53.296;6.614;2023-04-06T12:27:08;15.68;;;9.32;;
52642;SDS011;38531;53.296;6.614;2023-04-06T12:29:36;16.20;;;9.23;;
52642;SDS011;38531;53.296;6.614;2023-04-06T12:32:05;15.65;;;9.15;;
52642;SDS011;38531;53.296;6.614;2023-04-06T12:34:31;13.98;;;8.80;;
52642;SDS011;38531;53.296;6.614;2023-04-06T12:36:57;12.10;;;7.20;;
52642;SDS011;38531;53.296;6.614;2023-04-06T12:39:22;13.70;;;7.93;;
52642;SDS011;38531;53.296;6.614;2023-04-06T12:41:48;13.65;;;7.72;;
52642;SDS011;38531;53.296;6.614;2023-04-06T12:44:14;15.18;;;8.02;;
52642;SDS011;38531;53.296;6.614;2023-04-06T12:46:40;13.85;;;7.68;;
52642;SDS011;38531;53.296;6.614;2023-04-06T12:49:08;15.88;;;8.00;;
52642;SDS011;38531;53.296;6.614;2023-04-06T12:51:33;15.90;;;8.48;;
52642;SDS011;38531;53.296;6.614;2023-04-06T12:53:59;13.20;;;7.80;;
52642;SDS011;38531;53.296;6.614;2023-04-06T12:56:26;14.05;;;8.65;;
52642;SDS011;38531;53.296;6.614;2023-04-06T12:58:52;16.05;;;9.00;;
52642;SDS011;38531;53.296;6.614;2023-04-06T13:01:18;15.70;;;8.88;;
52642;SDS011;38531;53.296;6.614;2023-04-06T13:03:45;15.55;;;8.88;;
52642;SDS011;38531;53.296;6.614;2023-04-06T13:06:10;13.85;;;7.85;;
52642;SDS011;38531;53.296;6.614;2023-04-06T13:08:37;12.30;;;7.45;;
52642;SDS011;38531;53.296;6.614;2023-04-06T13:11:04;12.98;;;7.95;;
52642;SDS011;38531;53.296;6.614;2023-04-06T13:13:30;15.38;;;7.95;;
52642;SDS011;38531;53.296;6.614;2023-04-06T13:16:00;12.82;;;8.00;;
52642;SDS011;38531;53.296;6.614;2023-04-06T13:18:28;13.77;;;8.35;;
52642;SDS011;38531;53.296;6.614;2023-04-06T13:20:56;11.90;;;7.57;;
52642;SDS011;38531;53.296;6.614;2023-04-06T13:23:22;15.60;;;8.68;;
52642;SDS011;38531;53.296;6.614;2023-04-06T13:25:56;14.45;;;8.25;;
52642;SDS011;38531;53.296;6.614;2023-04-06T13:28:29;13.68;;;7.70;;
52642;SDS011;38531;53.296;6.614;2023-04-06T13:30:55;14.50;;;8.00;;
52642;SDS011;38531;53.296;6.614;2023-04-06T13:33:23;13.20;;;7.55;;
52642;SDS011;38531;53.296;6.614;2023-04-06T13:35:48;14.88;;;8.80;;
52642;SDS011;38531;53.296;6.614;2023-04-06T13:38:15;12.40;;;7.43;;
52642;SDS011;38531;53.296;6.614;2023-04-06T13:40:41;13.70;;;7.63;;
52642;SDS011;38531;53.296;6.614;2023-04-06T13:43:07;13.68;;;8.40;;
52642;SDS011;38531;53.296;6.614;2023-04-06T13:45:33;13.77;;;8.68;;
52642;SDS011;38531;53.296;6.614;2023-04-06T13:47:59;13.55;;;8.30;;
52642;SDS011;38531;53.296;6.614;2023-04-06T13:50:27;14.32;;;8.45;;
52642;SDS011;38531;53.296;6.614;2023-04-06T13:52:53;14.13;;;8.35;;
52642;SDS011;38531;53.296;6.614;2023-04-06T13:55:19;15.38;;;8.40;;
52642;SDS011;38531;53.296;6.614;2023-04-06T13:57:45;13.55;;;8.68;;
52642;SDS011;38531;53.296;6.614;2023-04-06T14:00:11;12.48;;;7.60;;
52642;SDS011;38531;53.296;6.614;2023-04-06T14:02:38;15.02;;;9.05;;
52642;SDS011;38531;53.296;6.614;2023-04-06T14:05:05;16.83;;;8.57;;
52642;SDS011;38531;53.296;6.614;2023-04-06T14:07:31;11.35;;;7.18;;
52642;SDS011;38531;53.296;6.614;2023-04-06T14:09:57;12.85;;;7.03;;
52642;SDS011;38531;53.296;6.614;2023-04-06T14:12:22;11.43;;;7.28;;
52642;SDS011;38531;53.296;6.614;2023-04-06T14:14:48;14.48;;;8.32;;
52642;SDS011;38531;53.296;6.614;2023-04-06T14:17:14;11.68;;;7.22;;
52642;SDS011;38531;53.296;6.614;2023-04-06T14:19:40;13.52;;;8.00;;
52642;SDS011;38531;53.296;6.614;2023-04-06T14:22:06;15.25;;;8.32;;
52642;SDS011;38531;53.296;6.614;2023-04-06T14:24:33;14.80;;;7.93;;
52642;SDS011;38531;53.296;6.614;2023-04-06T14:27:00;15.02;;;8.70;;
52642;SDS011;38531;53.296;6.614;2023-04-06T14:29:26;15.60;;;8.25;;
52642;SDS011;38531;53.296;6.614;2023-04-06T14:31:51;16.38;;;8.75;;
52642;SDS011;38531;53.296;6.614;2023-04-06T14:34:17;11.10;;;6.95;;
52642;SDS011;38531;53.296;6.614;2023-04-06T14:36:43;10.75;;;6.78;;
52642;SDS011;38531;53.296;6.614;2023-04-06T14:39:08;13.88;;;8.07;;
52642;SDS011;38531;53.296;6.614;2023-04-06T14:41:35;15.75;;;8.98;;
52642;SDS011;38531;53.296;6.614;2023-04-06T14:44:01;12.65;;;7.18;;
52642;SDS011;38531;53.296;6.614;2023-04-06T14:46:26;11.95;;;6.88;;
52642;SDS011;38531;53.296;6.614;2023-04-06T14:48:55;12.63;;;6.88;;
52642;SDS011;38531;53.296;6.614;2023-04-06T14:51:25;10.73;;;7.13;;